Time;durP1;ratioP1;P1;durP2;ratioP2;P2;SDS_P1;SDS_P2;PMS_P1;PMS_P2;Temp;Humidity;BMP_temperature;BMP_pressure;BME280_temperature;BME280_humidity;BME280_pressure;Samples;Min_cycle;Max_cycle;Signal;HPM_P1;HPM_P2
2024/01/30 00:01:11;;;;;;;0.00;0.00;;;12.60;71.10;;;;;;5037719;28;20192;-45
2024/01/30 00:03:41;;;;;;;0.00;0.00;;;12.60;71.10;;;;;;5032958;28;20201;-45
2024/01/30 00:06:13;;;;;;;0.00;0.00;;;12.60;71.10;;;;;;5025532;28;20249;-44
2024/01/30 00:08:41;;;;;;;0.00;0.00;;;12.60;71.00;;;;;;5046005;28;20726;-46
2024/01/30 00:11:10;;;;;;;0.00;0.00;;;12.60;71.00;;;;;;5039541;28;20663;-44
2024/01/30 00:13:41;;;;;;;0.00;0.00;;;12.60;71.00;;;;;;5043150;28;20318;-45
2024/01/30 00:16:19;;;;;;;0.00;0.00;;;12.60;71.10;;;;;;5040496;28;20442;-44
2024/01/30 00:18:54;;;;;;;0.00;0.00;;;12.60;71.10;;;;;;5035065;28;20644;-46
2024/01/30 00:21:22;;;;;;;0.00;0.00;;;12.60;71.10;;;;;;5040505;28;20219;-44
2024/01/30 00:23:50;;;;;;;0.00;0.00;;;12.60;71.10;;;;;;5040720;28;20202;-45
2024/01/30 00:26:17;;;;;;;0.00;0.00;;;12.60;71.90;;;;;;5031872;28;20212;-45
2024/01/30 00:28:47;;;;;;;0.00;0.00;;;12.60;71.20;;;;;;5035256;28;20263;-45
2024/01/30 00:31:14;;;;;;;0.00;0.00;;;12.60;71.20;;;;;;5039623;28;20683;-45
2024/01/30 00:33:42;;;;;;;0.00;0.00;;;12.60;71.20;;;;;;5038067;28;20653;-44
2024/01/30 00:36:10;;;;;;;0.00;0.00;;;12.60;71.10;;;;;;5042714;28;21044;-45
2024/01/30 00:38:37;;;;;;;0.00;0.00;;;12.60;71.10;;;;;;5030448;28;20221;-47
2024/01/30 00:41:07;;;;;;;0.00;0.00;;;12.60;71.10;;;;;;5044232;28;20288;-44
2024/01/30 00:43:35;;;;;;;0.00;0.00;;;12.60;71.20;;;;;;5008051;28;20197;-44
2024/01/30 00:46:03;;;;;;;0.00;0.00;;;12.60;71.20;;;;;;5041180;28;20200;-44
2024/01/30 00:48:30;;;;;;;0.00;0.00;;;12.60;71.20;;;;;;5041667;28;20212;-44
2024/01/30 00:50:58;;;;;;;0.00;0.00;;;12.60;71.10;;;;;;5030598;28;20898;-45
2024/01/30 00:53:27;;;;;;;0.00;0.00;;;12.60;71.20;;;;;;5042027;28;20301;-44
2024/01/30 00:55:57;;;;;;;0.00;0.00;;;12.60;71.20;;;;;;5027608;28;20216;-44
2024/01/30 00:58:27;;;;;;;0.00;0.00;;;12.60;71.20;;;;;;5037714;28;20212;-45
2024/01/30 01:00:54;;;;;;;0.00;0.00;;;12.60;71.20;;;;;;5038194;28;20196;-46
2024/01/30 01:03:22;;;;;;;0.00;0.00;;;12.70;71.30;;;;;;5030661;28;20299;-45
2024/01/30 01:05:52;;;;;;;0.00;0.00;;;12.70;71.30;;;;;;5029214;28;20283;-44
2024/01/30 01:08:21;;;;;;;0.00;0.00;;;12.70;71.30;;;;;;5029101;28;20212;-44
2024/01/30 01:10:51;;;;;;;0.00;0.00;;;12.70;71.30;;;;;;5030498;28;20215;-45
2024/01/30 01:13:20;;;;;;;0.00;0.00;;;12.70;71.30;;;;;;5038562;28;20219;-45
2024/01/30 01:15:50;;;;;;;0.00;0.00;;;12.70;71.40;;;;;;5029461;28;20299;-44
2024/01/30 01:18:18;;;;;;;0.00;0.00;;;12.70;71.30;;;;;;5034786;28;20235;-45
2024/01/30 01:20:45;;;;;;;0.00;0.00;;;12.80;71.30;;;;;;5033047;28;20240;-46
2024/01/30 01:23:15;;;;;;;0.00;0.00;;;12.80;71.40;;;;;;5027313;28;20225;-45
2024/01/30 01:25:42;;;;;;;0.00;0.00;;;12.80;71.40;;;;;;5027116;28;20707;-44
2024/01/30 01:28:14;;;;;;;0.00;0.00;;;12.80;71.40;;;;;;5034519;28;20208;-45
2024/01/30 01:30:44;;;;;;;0.00;0.00;;;12.80;71.30;;;;;;5024843;28;20667;-44
2024/01/30 01:33:14;;;;;;;0.00;0.00;;;12.90;71.30;;;;;;5025540;28;20893;-45
2024/01/30 01:35:47;;;;;;;0.00;0.00;;;12.90;71.40;;;;;;5025409;28;20319;-45
2024/01/30 01:38:18;;;;;;;0.00;0.00;;;12.90;71.40;;;;;;5034830;28;20204;-44
2024/01/30 01:40:46;;;;;;;0.00;0.00;;;12.90;71.40;;;;;;5040731;28;20198;-45
2024/01/30 01:43:15;;;;;;;0.00;0.00;;;12.90;71.50;;;;;;5033811;28;20208;-45
2024/01/30 01:45:43;;;;;;;0.00;0.00;;;12.90;71.40;;;;;;5033969;28;20208;-44
2024/01/30 01:48:13;;;;;;;0.00;0.00;;;12.90;71.40;;;;;;5037908;28;20937;-45
2024/01/30 01:50:42;;;;;;;0.00;0.00;;;13.00;71.50;;;;;;5037529;28;20213;-44
2024/01/30 01:53:18;;;;;;;0.00;0.00;;;13.00;71.50;;;;;;5030673;28;20263;-44
2024/01/30 01:55:46;;;;;;;0.00;0.00;;;13.00;71.40;;;;;;5036103;28;20590;-45
2024/01/30 01:58:16;;;;;;;0.00;0.00;;;13.00;71.50;;;;;;5031357;28;20196;-44
2024/01/30 02:00:44;;;;;;;0.00;0.00;;;13.00;71.40;;;;;;5043504;28;20216;-45
2024/01/30 02:03:21;;;;;;;0.00;0.00;;;13.00;71.30;;;;;;5034804;28;20207;-44
2024/01/30 02:05:53;;;;;;;0.00;0.00;;;13.00;71.40;;;;;;5030066;28;20580;-45
2024/01/30 02:08:24;;;;;;;0.00;0.00;;;13.00;71.30;;;;;;5036735;28;20231;-45
2024/01/30 02:10:51;;;;;;;0.00;0.00;;;13.00;71.40;;;;;;5032468;28;20208;-44
2024/01/30 02:13:21;;;;;;;0.00;0.00;;;13.00;71.30;;;;;;5016736;28;20193;-45
2024/01/30 02:15:53;;;;;;;0.00;0.00;;;13.00;71.40;;;;;;5030267;28;20213;-47
2024/01/30 02:18:23;;;;;;;0.00;0.00;;;13.00;71.40;;;;;;5033559;28;20224;-45
2024/01/30 02:20:54;;;;;;;0.00;0.00;;;13.00;71.40;;;;;;5036011;28;20671;-45
2024/01/30 02:23:25;;;;;;;0.00;0.00;;;13.00;71.40;;;;;;5039996;28;20204;-44
2024/01/30 02:26:00;;;;;;;0.00;0.00;;;13.10;71.30;;;;;;5037378;28;20493;-44
2024/01/30 02:28:29;;;;;;;0.00;0.00;;;13.00;71.30;;;;;;5031810;28;20315;-44
2024/01/30 02:30:59;;;;;;;0.00;0.00;;;13.10;71.40;;;;;;5032298;28;20204;-45
2024/01/30 02:33:28;;;;;;;0.00;0.00;;;13.10;71.40;;;;;;5014542;28;20196;-44
2024/01/30 02:35:58;;;;;;;0.00;0.00;;;13.00;71.40;;;;;;5030326;28;20241;-45
2024/01/30 02:38:26;;;;;;;0.00;0.00;;;13.00;71.30;;;;;;5042156;28;20241;-45
2024/01/30 02:40:56;;;;;;;0.00;0.00;;;13.00;71.40;;;;;;5037976;28;20579;-44
2024/01/30 02:43:26;;;;;;;0.00;0.00;;;13.10;71.40;;;;;;5030681;28;20213;-44
2024/01/30 02:45:58;;;;;;;0.00;0.00;;;13.10;71.40;;;;;;5031306;28;20266;-44
2024/01/30 02:48:27;;;;;;;0.00;0.00;;;13.10;71.40;;;;;;5040066;28;20239;-45
2024/01/30 02:51:00;;;;;;;0.00;0.00;;;13.10;71.50;;;;;;5045761;28;20211;-44
2024/01/30 02:53:29;;;;;;;0.00;0.00;;;13.10;71.40;;;;;;5029373;28;20197;-44
2024/01/30 02:55:57;;;;;;;0.00;0.00;;;13.10;71.40;;;;;;5040618;28;20209;-45
2024/01/30 02:58:26;;;;;;;0.00;0.00;;;13.00;71.40;;;;;;5025527;28;20262;-45
2024/01/30 03:00:53;;;;;;;0.00;0.00;;;13.10;71.50;;;;;;5045023;28;20300;-46
2024/01/30 03:03:21;;;;;;;0.00;0.00;;;13.00;71.40;;;;;;5035494;28;20204;-44
2024/01/30 03:05:55;;;;;;;0.00;0.00;;;13.10;71.50;;;;;;5022483;28;20220;-45
2024/01/30 03:08:27;;;;;;;0.00;0.00;;;13.00;71.50;;;;;;5035585;28;20330;-43
2024/01/30 03:10:55;;;;;;;0.00;0.00;;;13.00;71.50;;;;;;5032219;28;20292;-44
2024/01/30 03:13:25;;;;;;;0.00;0.00;;;13.10;71.60;;;;;;5040775;28;20197;-45
2024/01/30 03:15:52;;;;;;;0.00;0.00;;;13.10;71.50;;;;;;5034957;28;20212;-44
2024/01/30 03:18:22;;;;;;;0.00;0.00;;;13.10;71.50;;;;;;5031294;28;20209;-45
2024/01/30 03:20:51;;;;;;;0.00;0.00;;;13.10;71.60;;;;;;5036647;28;20664;-45
2024/01/30 03:23:22;;;;;;;0.00;0.00;;;13.10;72.30;;;;;;5036629;28;20209;-44
2024/01/30 03:25:56;;;;;;;0.00;0.00;;;13.10;71.50;;;;;;5037379;28;20232;-44
2024/01/30 03:28:23;;;;;;;0.00;0.00;;;13.10;71.60;;;;;;5030212;28;20209;-45
2024/01/30 03:30:53;;;;;;;0.00;0.00;;;13.20;71.60;;;;;;5034248;28;20204;-44
2024/01/30 03:33:22;;;;;;;0.00;0.00;;;13.10;71.50;;;;;;5038910;28;20213;-46
2024/01/30 03:35:54;;;;;;;0.00;0.00;;;13.20;71.60;;;;;;5043589;28;20256;-46
2024/01/30 03:38:21;;;;;;;0.00;0.00;;;13.10;71.60;;;;;;5038220;28;20651;-45
2024/01/30 03:40:48;;;;;;;0.00;0.00;;;13.20;71.60;;;;;;5043079;28;20216;-45
2024/01/30 03:43:18;;;;;;;0.00;0.00;;;13.20;71.60;;;;;;5031962;28;20551;-44
2024/01/30 03:45:45;;;;;;;0.00;0.00;;;13.20;71.50;;;;;;5032720;28;20247;-44
2024/01/30 03:48:15;;;;;;;0.00;0.00;;;13.20;71.50;;;;;;5041470;28;20694;-45
2024/01/30 03:50:49;;;;;;;0.00;0.00;;;13.20;71.60;;;;;;5033858;28;20208;-43
2024/01/30 03:53:18;;;;;;;0.00;0.00;;;13.20;71.60;;;;;;5033882;28;20205;-44
2024/01/30 03:55:50;;;;;;;0.00;0.00;;;13.20;71.50;;;;;;5050523;28;20216;-44
2024/01/30 03:58:17;;;;;;;0.00;0.00;;;13.20;71.50;;;;;;5038690;28;20213;-44
2024/01/30 04:00:45;;;;;;;0.00;0.00;;;13.20;71.60;;;;;;5039759;28;20223;-44
2024/01/30 04:03:12;;;;;;;0.00;0.00;;;13.20;71.60;;;;;;5039973;28;20197;-44
2024/01/30 04:05:47;;;;;;;0.00;0.00;;;13.20;71.60;;;;;;5032307;28;20226;-45
2024/01/30 04:08:14;;;;;;;0.00;0.00;;;13.20;71.50;;;;;;5043629;28;20220;-45
2024/01/30 04:10:43;;;;;;;0.00;0.00;;;13.20;71.50;;;;;;5037573;28;20201;-44
2024/01/30 04:13:13;;;;;;;0.00;0.00;;;13.20;71.50;;;;;;5040312;28;20572;-44
2024/01/30 04:15:45;;;;;;;0.00;0.00;;;13.20;71.50;;;;;;5039434;28;20255;-45
2024/01/30 04:18:12;;;;;;;0.00;0.00;;;13.20;71.50;;;;;;5031754;28;20228;-44
2024/01/30 04:20:41;;;;;;;0.00;0.00;;;13.20;71.50;;;;;;5043372;28;20346;-45
2024/01/30 04:23:11;;;;;;;0.00;0.00;;;13.20;71.60;;;;;;5032017;28;20863;-44
2024/01/30 04:25:40;;;;;;;0.00;0.00;;;13.20;71.60;;;;;;5037754;28;20229;-45
2024/01/30 04:28:11;;;;;;;0.00;0.00;;;13.20;71.60;;;;;;5038627;28;20234;-44
2024/01/30 04:30:41;;;;;;;0.00;0.00;;;13.20;71.60;;;;;;5028574;28;20803;-44
2024/01/30 04:33:08;;;;;;;0.00;0.00;;;13.20;71.60;;;;;;5043076;28;20723;-45
2024/01/30 04:35:36;;;;;;;0.00;0.00;;;13.20;71.60;;;;;;5046409;28;20745;-44
2024/01/30 04:38:07;;;;;;;0.00;0.00;;;13.20;71.60;;;;;;5032407;28;20616;-45
2024/01/30 04:40:36;;;;;;;0.00;0.00;;;13.30;71.70;;;;;;5048276;28;20694;-46
2024/01/30 04:43:04;;;;;;;0.00;0.00;;;13.30;71.60;;;;;;5037717;28;20224;-45
2024/01/30 04:45:31;;;;;;;0.00;0.00;;;13.20;71.60;;;;;;5047864;28;20204;-45
2024/01/30 04:48:00;;;;;;;0.00;0.00;;;13.30;71.60;;;;;;5051121;28;20338;-45
2024/01/30 04:50:30;;;;;;;0.00;0.00;;;13.30;71.60;;;;;;5040835;28;20200;-45
2024/01/30 04:52:59;;;;;;;0.00;0.00;;;13.30;71.60;;;;;;5032867;28;20211;-44
2024/01/30 04:55:31;;;;;;;0.00;0.00;;;13.20;71.50;;;;;;5036455;28;20704;-44
2024/01/30 04:57:58;;;;;;;0.00;0.00;;;13.30;71.60;;;;;;5037081;28;20207;-44
2024/01/30 05:00:25;;;;;;;0.00;0.00;;;13.20;71.60;;;;;;5032942;28;20248;-44
2024/01/30 05:02:55;;;;;;;0.00;0.00;;;13.30;71.60;;;;;;5037742;28;20881;-45
2024/01/30 05:05:25;;;;;;;0.00;0.00;;;13.30;71.60;;;;;;5044052;28;20274;-44
2024/01/30 05:07:56;;;;;;;0.00;0.00;;;13.30;71.60;;;;;;5021156;28;20243;-44
2024/01/30 05:10:28;;;;;;;0.00;0.00;;;13.30;71.60;;;;;;5034921;28;20220;-44
2024/01/30 05:12:58;;;;;;;0.00;0.00;;;13.30;71.60;;;;;;5040154;28;20235;-45
2024/01/30 05:15:25;;;;;;;0.00;0.00;;;13.30;71.60;;;;;;5030838;28;20200;-45
2024/01/30 05:17:52;;;;;;;0.00;0.00;;;13.30;71.60;;;;;;5027274;28;20216;-44
2024/01/30 05:20:22;;;;;;;0.00;0.00;;;13.30;71.60;;;;;;5031767;28;20216;-44
2024/01/30 05:22:49;;;;;;;0.00;0.00;;;13.30;71.70;;;;;;5037437;28;20224;-44
2024/01/30 05:25:19;;;;;;;0.00;0.00;;;13.30;71.70;;;;;;5034746;28;20192;-44
2024/01/30 05:27:51;;;;;;;0.00;0.00;;;13.30;71.70;;;;;;5033287;28;20255;-44
2024/01/30 05:30:22;;;;;;;0.00;0.00;;;13.30;71.70;;;;;;5032810;28;20205;-44
2024/01/30 05:32:54;;;;;;;0.00;0.00;;;13.30;71.70;;;;;;5035459;28;20232;-44
2024/01/30 05:35:23;;;;;;;0.00;0.00;;;13.30;71.70;;;;;;5039934;28;20703;-44
2024/01/30 05:37:53;;;;;;;0.00;0.00;;;13.30;71.60;;;;;;5041019;28;20666;-45
2024/01/30 05:40:20;;;;;;;0.00;0.00;;;13.30;71.60;;;;;;5046050;28;20216;-45
2024/01/30 05:42:50;;;;;;;0.00;0.00;;;13.30;71.60;;;;;;5039070;28;20228;-44
2024/01/30 05:45:20;;;;;;;0.00;0.00;;;13.40;71.70;;;;;;5035203;28;20312;-44
2024/01/30 05:47:51;;;;;;;0.00;0.00;;;13.30;71.60;;;;;;5031960;28;20290;-44
2024/01/30 05:50:23;;;;;;;0.00;0.00;;;13.40;71.80;;;;;;5032030;28;20212;-44
2024/01/30 05:52:56;;;;;;;0.00;0.00;;;13.40;71.70;;;;;;5044659;28;20271;-45
2024/01/30 05:55:25;;;;;;;0.00;0.00;;;13.30;71.60;;;;;;5032911;28;20671;-44
2024/01/30 05:57:57;;;;;;;0.00;0.00;;;13.40;71.80;;;;;;5043436;28;20196;-44
2024/01/30 06:00:25;;;;;;;0.00;0.00;;;13.40;71.80;;;;;;5036628;28;20220;-45
2024/01/30 06:02:54;;;;;;;0.00;0.00;;;13.40;71.80;;;;;;5033598;28;20684;-44
2024/01/30 06:05:27;;;;;;;0.00;0.00;;;13.40;71.70;;;;;;5030278;28;20305;-45
2024/01/30 06:07:57;;;;;;;0.00;0.00;;;13.40;71.70;;;;;;5025325;28;20303;-44
2024/01/30 06:10:26;;;;;;;0.00;0.00;;;13.40;71.70;;;;;;5028499;28;20271;-44
2024/01/30 06:12:56;;;;;;;0.00;0.00;;;13.40;71.70;;;;;;5026081;28;20211;-45
2024/01/30 06:15:23;;;;;;;0.00;0.00;;;13.40;71.80;;;;;;5026105;28;20204;-44
2024/01/30 06:17:55;;;;;;;0.00;0.00;;;13.40;71.80;;;;;;5035121;28;20673;-45
2024/01/30 06:20:25;;;;;;;0.00;0.00;;;13.40;71.80;;;;;;5035060;28;20217;-45
2024/01/30 06:22:55;;;;;;;0.00;0.00;;;13.40;71.80;;;;;;5039032;28;20193;-45
2024/01/30 06:25:24;;;;;;;0.00;0.00;;;13.50;71.90;;;;;;5034003;28;20689;-44
2024/01/30 06:27:51;;;;;;;0.00;0.00;;;13.40;71.80;;;;;;5037982;28;20603;-45
2024/01/30 06:30:19;;;;;;;0.00;0.00;;;13.50;71.80;;;;;;5045721;28;20200;-45
2024/01/30 06:32:48;;;;;;;0.00;0.00;;;13.50;71.80;;;;;;5037814;28;20212;-45
2024/01/30 06:35:17;;;;;;;0.00;0.00;;;13.50;71.80;;;;;;5035143;28;20247;-45
2024/01/30 06:37:47;;;;;;;0.00;0.00;;;13.50;71.80;;;;;;5037234;28;20214;-45
2024/01/30 06:40:16;;;;;;;0.00;0.00;;;13.50;71.80;;;;;;5024008;28;20437;-44
2024/01/30 06:42:48;;;;;;;0.00;0.00;;;13.50;71.80;;;;;;5026480;28;20288;-45
2024/01/30 06:45:17;;;;;;;0.00;0.00;;;13.50;71.70;;;;;;5035862;28;20200;-44
2024/01/30 06:47:47;;;;;;;0.00;0.00;;;13.50;71.70;;;;;;5033542;28;20204;-46
2024/01/30 06:50:17;;;;;;;0.00;0.00;;;13.50;71.70;;;;;;5031549;28;20899;-44
2024/01/30 06:52:44;;;;;;;0.00;0.00;;;13.50;71.70;;;;;;5036279;28;20209;-45
2024/01/30 06:55:14;;;;;;;0.00;0.00;;;13.50;71.70;;;;;;5033215;28;20731;-45
2024/01/30 06:57:41;;;;;;;0.00;0.00;;;13.50;71.80;;;;;;5024234;28;20232;-45
2024/01/30 07:00:11;;;;;;;0.00;0.00;;;13.40;71.70;;;;;;5044153;28;20216;-44
2024/01/30 07:02:38;;;;;;;0.00;0.00;;;13.50;71.80;;;;;;5021344;28;20608;-45
2024/01/30 07:05:05;;;;;;;0.00;0.00;;;13.40;71.70;;;;;;5007735;28;20345;-45
2024/01/30 07:07:33;;;;;;;0.00;0.00;;;13.50;71.80;;;;;;5036716;28;20667;-45
2024/01/30 07:10:03;;;;;;;0.00;0.00;;;13.50;71.80;;;;;;5033443;28;20451;-45
2024/01/30 07:12:31;;;;;;;0.00;0.00;;;13.50;71.80;;;;;;5030897;28;20212;-44
2024/01/30 07:15:02;;;;;;;0.00;0.00;;;13.40;71.70;;;;;;5026821;28;20213;-47
2024/01/30 07:17:32;;;;;;;0.00;0.00;;;13.50;71.80;;;;;;5032342;28;21038;-46
2024/01/30 07:19:59;;;;;;;0.00;0.00;;;13.50;71.80;;;;;;5033369;28;20229;-44
2024/01/30 07:22:27;;;;;;;0.00;0.00;;;13.50;71.80;;;;;;5032357;28;20679;-44
2024/01/30 07:24:59;;;;;;;0.00;0.00;;;13.50;71.80;;;;;;5035213;28;20207;-45
2024/01/30 07:27:28;;;;;;;0.00;0.00;;;13.50;71.80;;;;;;5044123;28;20671;-44
2024/01/30 07:30:00;;;;;;;0.00;0.00;;;13.50;71.90;;;;;;5036709;28;20230;-45
2024/01/30 07:32:30;;;;;;;0.00;0.00;;;13.50;72.60;;;;;;5040493;28;20209;-45
2024/01/30 07:35:00;;;;;;;0.00;0.00;;;13.50;71.80;;;;;;5043548;28;20239;-44
2024/01/30 07:37:35;;;;;;;0.00;0.00;;;13.50;71.80;;;;;;5039061;28;20211;-45
2024/01/30 07:40:03;;;;;;;0.00;0.00;;;13.50;71.90;;;;;;5036008;28;20303;-44
2024/01/30 07:42:31;;;;;;;0.00;0.00;;;13.50;71.90;;;;;;5037506;28;20200;-46
2024/01/30 07:45:02;;;;;;;0.00;0.00;;;13.50;71.90;;;;;;5035512;28;20205;-44
2024/01/30 07:47:31;;;;;;;0.00;0.00;;;13.50;71.90;;;;;;5031655;28;20213;-45
2024/01/30 07:50:01;;;;;;;0.00;0.00;;;13.50;71.90;;;;;;5045540;28;20264;-46
2024/01/30 07:52:29;;;;;;;0.00;0.00;;;13.50;71.90;;;;;;5040438;28;20228;-46
2024/01/30 07:54:59;;;;;;;0.00;0.00;;;13.50;71.90;;;;;;5032915;28;20204;-44
2024/01/30 07:57:26;;;;;;;0.00;0.00;;;13.50;71.90;;;;;;5044581;28;20204;-45
2024/01/30 07:59:57;;;;;;;0.00;0.00;;;13.50;71.90;;;;;;5038631;28;20236;-44
2024/01/30 08:02:28;;;;;;;0.00;0.00;;;13.50;71.90;;;;;;5034953;28;20232;-44
2024/01/30 08:04:58;;;;;;;0.00;0.00;;;13.50;72.00;;;;;;5038161;28;20574;-45
2024/01/30 08:07:29;;;;;;;0.00;0.00;;;13.60;72.10;;;;;;5020220;28;20558;-46
2024/01/30 08:09:56;;;;;;;0.00;0.00;;;13.60;72.10;;;;;;5043329;28;20197;-45
2024/01/30 08:12:26;;;;;;;0.00;0.00;;;13.60;72.10;;;;;;5037014;28;20208;-45
2024/01/30 08:14:56;;;;;;;0.00;0.00;;;13.60;72.10;;;;;;5033637;28;20196;-44
2024/01/30 08:17:23;;;;;;;0.00;0.00;;;13.60;72.00;;;;;;5036116;28;20216;-44
2024/01/30 08:19:53;;;;;;;0.00;0.00;;;13.60;72.10;;;;;;5049881;28;20250;-44
2024/01/30 08:22:23;;;;;;;0.00;0.00;;;13.60;72.00;;;;;;5031727;28;20679;-44
2024/01/30 08:24:53;;;;;;;0.00;0.00;;;13.60;72.00;;;;;;5046613;28;20246;-45
2024/01/30 08:27:20;;;;;;;0.00;0.00;;;13.60;72.00;;;;;;5035918;28;20196;-44
2024/01/30 08:29:47;;;;;;;0.00;0.00;;;13.60;72.00;;;;;;5031989;28;20638;-45
2024/01/30 08:32:17;;;;;;;0.00;0.00;;;13.70;72.10;;;;;;5038047;28;20212;-45
2024/01/30 08:34:48;;;;;;;0.00;0.00;;;13.70;72.10;;;;;;5034961;28;20239;-44
2024/01/30 08:37:18;;;;;;;0.00;0.00;;;13.70;72.00;;;;;;5040417;28;20224;-45
2024/01/30 08:39:45;;;;;;;0.00;0.00;;;13.70;72.10;;;;;;5043988;28;20884;-45
2024/01/30 08:42:15;;;;;;;0.00;0.00;;;13.70;72.10;;;;;;5031719;28;20272;-45
2024/01/30 08:44:42;;;;;;;0.00;0.00;;;13.70;72.10;;;;;;5040768;28;20204;-44
2024/01/30 08:47:12;;;;;;;0.00;0.00;;;13.70;72.20;;;;;;5029478;28;20225;-45
2024/01/30 08:49:43;;;;;;;0.00;0.00;;;13.70;72.20;;;;;;5032037;28;20197;-44
2024/01/30 08:52:11;;;;;;;0.00;0.00;;;13.70;72.10;;;;;;5029976;28;20204;-44
2024/01/30 08:54:43;;;;;;;0.00;0.00;;;13.70;72.20;;;;;;5040831;28;20235;-44
2024/01/30 08:57:10;;;;;;;0.00;0.00;;;13.80;72.30;;;;;;5046854;28;20281;-45
2024/01/30 08:59:38;;;;;;;0.00;0.00;;;13.80;72.30;;;;;;5040785;28;20203;-45
2024/01/30 09:02:09;;;;;;;0.00;0.00;;;13.80;72.20;;;;;;5032260;28;20967;-45
2024/01/30 09:04:41;;;;;;;0.00;0.00;;;13.80;72.20;;;;;;5033056;28;20295;-46
2024/01/30 09:07:13;;;;;;;0.00;0.00;;;13.80;72.20;;;;;;5030491;28;20192;-45
2024/01/30 09:09:41;;;;;;;0.00;0.00;;;13.80;72.20;;;;;;5028853;28;20294;-46
2024/01/30 09:12:11;;;;;;;0.00;0.00;;;13.90;72.30;;;;;;5030895;28;20698;-45
2024/01/30 09:14:41;;;;;;;0.00;0.00;;;13.90;72.30;;;;;;5028033;28;20223;-45
2024/01/30 09:17:13;;;;;;;0.00;0.00;;;13.90;72.30;;;;;;5031772;28;20223;-45
2024/01/30 09:19:41;;;;;;;0.00;0.00;;;13.90;72.40;;;;;;5029350;28;20208;-46
2024/01/30 09:22:10;;;;;;;0.00;0.00;;;13.90;72.40;;;;;;5038582;28;20220;-46
2024/01/30 09:24:37;;;;;;;0.00;0.00;;;14.00;72.40;;;;;;5032494;28;20212;-45
2024/01/30 09:27:09;;;;;;;0.00;0.00;;;14.00;72.40;;;;;;5036050;28;20699;-46
2024/01/30 09:29:37;;;;;;;0.00;0.00;;;14.00;72.40;;;;;;5034121;28;20220;-45
2024/01/30 09:32:05;;;;;;;0.00;0.00;;;14.00;72.40;;;;;;5032777;28;20208;-46
2024/01/30 09:34:32;;;;;;;0.00;0.00;;;14.10;72.40;;;;;;5018509;28;20327;-45
2024/01/30 09:37:00;;;;;;;0.00;0.00;;;14.00;72.30;;;;;;5037361;28;20216;-45
2024/01/30 09:39:34;;;;;;;0.00;0.00;;;14.10;72.40;;;;;;5032054;28;20696;-45
2024/01/30 09:42:20;;;;;;;0.00;0.00;;;14.10;72.40;;;;;;5032466;28;20973;-44
2024/01/30 09:44:53;;;;;;;0.00;0.00;;;14.10;72.40;;;;;;5032736;28;20562;-46
2024/01/30 09:47:26;;;;;;;0.00;0.00;;;14.10;72.40;;;;;;5039265;28;20570;-44
2024/01/30 09:50:00;;;;;;;0.00;0.00;;;14.10;72.40;;;;;;5022511;28;20250;-45
2024/01/30 09:52:30;;;;;;;0.00;0.00;;;14.20;72.40;;;;;;5039149;28;20578;-45
2024/01/30 09:55:02;;;;;;;0.00;0.00;;;14.10;72.50;;;;;;5036972;28;20215;-46
2024/01/30 09:57:32;;;;;;;0.00;0.00;;;14.20;72.50;;;;;;5047020;28;20217;-45
2024/01/30 10:00:04;;;;;;;0.00;0.00;;;14.20;72.40;;;;;;5043442;28;20266;-46
2024/01/30 10:02:32;;;;;;;0.00;0.00;;;14.20;72.50;;;;;;5040978;28;20243;-45
2024/01/30 10:05:04;;;;;;;0.00;0.00;;;14.20;72.40;;;;;;5049580;28;20815;-47
2024/01/30 10:07:34;;;;;;;0.00;0.00;;;14.30;72.50;;;;;;5032690;28;20303;-46
2024/01/30 10:10:02;;;;;;;0.00;0.00;;;14.30;72.50;;;;;;5033702;28;20199;-47
2024/01/30 10:12:32;;;;;;;0.00;0.00;;;14.30;72.40;;;;;;5031569;28;20204;-46
2024/01/30 10:15:02;;;;;;;0.00;0.00;;;14.30;72.40;;;;;;5034641;28;20766;-45
2024/01/30 10:17:31;;;;;;;0.00;0.00;;;14.30;72.50;;;;;;5044871;28;20663;-45
2024/01/30 10:20:06;;;;;;;0.00;0.00;;;14.30;73.20;;;;;;5043673;28;20227;-48
2024/01/30 10:22:39;;;;;;;0.00;0.00;;;14.30;72.50;;;;;;5044733;28;20714;-46
2024/01/30 10:25:11;;;;;;;0.00;0.00;;;14.30;72.50;;;;;;5035870;28;20223;-46
2024/01/30 10:27:42;;;;;;;0.00;0.00;;;14.30;72.50;;;;;;5040954;28;20219;-46
2024/01/30 10:30:11;;;;;;;0.00;0.00;;;14.30;72.50;;;;;;5050027;28;20587;-47
2024/01/30 10:32:39;;;;;;;0.00;0.00;;;14.30;72.50;;;;;;5039339;28;20200;-47
2024/01/30 10:35:08;;;;;;;0.00;0.00;;;14.40;72.60;;;;;;5036433;28;20280;-45
2024/01/30 10:37:41;;;;;;;0.00;0.00;;;14.40;72.60;;;;;;5048132;28;20304;-48
2024/01/30 10:40:16;;;;;;;0.00;0.00;;;14.40;72.60;;;;;;5038439;28;20217;-45
2024/01/30 10:42:50;;;;;;;0.00;0.00;;;14.40;72.60;;;;;;5041077;28;20207;-47
2024/01/30 10:45:20;;;;;;;0.00;0.00;;;14.40;72.60;;;;;;5038848;28;20197;-47
2024/01/30 10:47:56;;;;;;;0.00;0.00;;;14.40;72.60;;;;;;5044802;28;20207;-46
2024/01/30 10:50:25;;;;;;;0.00;0.00;;;14.40;72.60;;;;;;5039807;28;20210;-46
2024/01/30 10:52:57;;;;;;;0.00;0.00;;;14.50;72.60;;;;;;5040139;28;20212;-46
2024/01/30 10:55:28;;;;;;;0.00;0.00;;;14.50;72.60;;;;;;5035015;28;20214;-47
2024/01/30 10:57:58;;;;;;;0.00;0.00;;;14.50;72.60;;;;;;5037293;28;20553;-46
2024/01/30 11:00:26;;;;;;;0.00;0.00;;;14.50;72.70;;;;;;5015948;28;20224;-46
2024/01/30 11:02:56;;;;;;;0.00;0.00;;;14.50;72.70;;;;;;5031007;28;20213;-47
2024/01/30 11:05:27;;;;;;;0.00;0.00;;;14.50;72.70;;;;;;5032384;28;20295;-48
2024/01/30 11:08:22;;;;;;;0.00;0.00;;;14.50;72.60;;;;;;5030660;28;20295;-48
2024/01/30 11:10:52;;;;;;;0.00;0.00;;;14.50;72.60;;;;;;5029412;28;20897;-48
2024/01/30 11:13:22;;;;;;;0.00;0.00;;;14.50;72.50;;;;;;5037572;28;20193;-46
2024/01/30 11:15:49;;;;;;;0.00;0.00;;;14.50;72.40;;;;;;5029512;28;20192;-47
2024/01/30 11:18:24;;;;;;;0.00;0.00;;;14.50;72.30;;;;;;5028737;28;20212;-47
2024/01/30 11:20:52;;;;;;;0.00;0.00;;;14.50;72.30;;;;;;5042438;28;20580;-46
2024/01/30 11:23:27;;;;;;;0.00;0.00;;;14.50;72.40;;;;;;5045831;28;20588;-46
2024/01/30 11:25:56;;;;;;;0.00;0.00;;;14.50;72.30;;;;;;5048076;28;20281;-46
2024/01/30 11:28:24;;;;;;;0.00;0.00;;;14.50;72.20;;;;;;5044784;28;20197;-47
2024/01/30 11:30:51;;;;;;;0.00;0.00;;;14.40;72.30;;;;;;5034060;28;20243;-46
2024/01/30 11:33:33;;;;;;;0.00;0.00;;;14.40;72.10;;;;;;5043693;28;20209;-47
2024/01/30 11:36:02;;;;;;;0.00;0.00;;;14.40;71.80;;;;;;5032505;28;20229;-46
2024/01/30 11:38:32;;;;;;;0.00;0.00;;;14.40;72.10;;;;;;5039536;28;20193;-46
2024/01/30 11:41:03;;;;;;;0.00;0.00;;;14.40;72.10;;;;;;5034150;28;20598;-46
2024/01/30 11:43:35;;;;;;;0.00;0.00;;;14.40;72.00;;;;;;5037792;28;20215;-46
2024/01/30 11:46:07;;;;;;;0.00;0.00;;;14.30;72.00;;;;;;5038913;28;20200;-45
2024/01/30 11:48:37;;;;;;;0.00;0.00;;;14.30;71.80;;;;;;5038513;28;20197;-49
2024/01/30 11:51:07;;;;;;;0.00;0.00;;;14.30;71.30;;;;;;5034987;28;20204;-48
2024/01/30 11:53:34;;;;;;;0.00;0.00;;;14.30;71.80;;;;;;5038005;28;20201;-43
2024/01/30 11:56:05;;;;;;;0.00;0.00;;;14.20;71.60;;;;;;5036616;28;20216;-48
2024/01/30 11:58:33;;;;;;;0.00;0.00;;;14.20;71.60;;;;;;5037721;28;20201;-47
2024/01/30 12:01:02;;;;;;;0.00;0.00;;;14.20;71.80;;;;;;5039751;28;20290;-49
2024/01/30 12:03:35;;;;;;;0.00;0.00;;;14.20;71.90;;;;;;5036749;28;20240;-47
2024/01/30 12:06:03;;;;;;;0.00;0.00;;;14.10;71.90;;;;;;5033798;28;20701;-48
2024/01/30 12:08:30;;;;;;;0.00;0.00;;;14.10;71.90;;;;;;5036163;28;20200;-44
2024/01/30 12:11:01;;;;;;;0.00;0.00;;;14.10;71.60;;;;;;5047308;28;20326;-48
2024/01/30 12:13:29;;;;;;;0.00;0.00;;;14.10;71.60;;;;;;5037140;28;20722;-47
2024/01/30 12:16:03;;;;;;;0.00;0.00;;;14.10;71.70;;;;;;5035497;28;20207;-43
2024/01/30 12:18:35;;;;;;;0.00;0.00;;;14.10;71.60;;;;;;5037003;28;20288;-46
2024/01/30 12:21:02;;;;;;;0.00;0.00;;;14.00;71.50;;;;;;5034524;28;20220;-43
2024/01/30 12:23:32;;;;;;;0.00;0.00;;;14.00;71.30;;;;;;5027735;28;20208;-49
2024/01/30 12:26:01;;;;;;;0.10;0.00;;;14.00;71.10;;;;;;5040636;28;20203;-49
2024/01/30 12:28:28;;;;;;;0.00;0.00;;;14.00;71.20;;;;;;5035374;28;20553;-47
2024/01/30 12:31:06;;;;;;;0.00;0.00;;;14.00;70.00;;;;;;5038054;28;20765;-48
2024/01/30 12:33:36;;;;;;;0.00;0.00;;;13.90;70.70;;;;;;5034718;28;20191;-48
2024/01/30 12:36:06;;;;;;;0.00;0.00;;;13.90;70.90;;;;;;5041352;28;20236;-48
2024/01/30 12:38:34;;;;;;;0.00;0.00;;;13.80;70.60;;;;;;5035539;28;20667;-47
2024/01/30 12:41:04;;;;;;;0.00;0.00;;;13.80;70.40;;;;;;5034240;28;20196;-47
2024/01/30 12:43:31;;;;;;;0.00;0.00;;;13.70;70.60;;;;;;5037829;28;20200;-45
2024/01/30 12:46:07;;;;;;;0.00;0.00;;;13.70;69.50;;;;;;5036484;28;20204;-46
2024/01/30 12:48:37;;;;;;;0.00;0.00;;;13.60;70.60;;;;;;5032150;28;20567;-46
2024/01/30 12:51:05;;;;;;;0.00;0.00;;;13.60;70.10;;;;;;5032862;28;20626;-48
2024/01/30 12:53:35;;;;;;;0.00;0.00;;;13.60;71.40;;;;;;5034439;28;20952;-47
2024/01/30 12:56:03;;;;;;;0.00;0.00;;;13.60;70.30;;;;;;5031016;28;20216;-46
2024/01/30 12:58:30;;;;;;;0.00;0.00;;;13.50;70.20;;;;;;5033180;28;20212;-46
2024/01/30 13:01:00;;;;;;;0.00;0.00;;;13.50;70.20;;;;;;5026858;28;20800;-46